Time;durP1;ratioP1;P1;durP2;ratioP2;P2;SDS_P1;SDS_P2;PMS_P1;PMS_P2;Temp;Humidity;BMP_temperature;BMP_pressure;BME280_temperature;BME280_humidity;BME280_pressure;Samples;Min_cycle;Max_cycle;Signal;HPM_P1;HPM_P2
2022/09/05 00:02:44;;;;;;;6.38;2.33;;;11.70;99.90;;;;;;6311118;28;20294;-68
2022/09/05 00:06:06;;;;;;;5.35;2.42;;;11.60;99.90;;;;;;6311774;28;20597;-68
2022/09/05 00:09:17;;;;;;;2.38;2.22;;;11.60;99.90;;;;;;6311219;28;20349;-68
2022/09/05 00:12:25;;;;;;;2.63;2.17;;;11.60;99.90;;;;;;6286412;28;20295;-67
2022/09/05 00:15:40;;;;;;;2.67;2.17;;;11.60;99.90;;;;;;6287264;28;20267;-67
2022/09/05 00:19:01;;;;;;;4.20;2.20;;;11.60;99.90;;;;;;6285152;28;20303;-69
2022/09/05 00:22:38;;;;;;;1.98;1.88;;;11.60;99.90;;;;;;6286083;28;20287;-68
2022/09/05 00:26:20;;;;;;;5.45;2.08;;;11.50;99.90;;;;;;6286327;28;20406;-68
2022/09/05 00:29:54;;;;;;;2.75;1.98;;;11.50;99.90;;;;;;6285984;28;20291;-68
2022/09/05 00:33:28;;;;;;;5.50;1.90;;;11.50;99.90;;;;;;6285806;28;20299;-68
2022/09/05 00:36:43;;;;;;;6.50;2.50;;;11.40;99.90;;;;;;6286384;28;20339;-68
2022/09/05 00:39:49;;;;;;;2.15;2.08;;;11.40;99.90;;;;;;6285707;28;20276;-68
2022/09/05 00:43:22;;;;;;;1.80;1.80;;;11.40;99.90;;;;;;6285885;28;20298;-69
2022/09/05 00:46:30;;;;;;;2.00;1.90;;;11.30;99.90;;;;;;6286031;28;20267;-68
2022/09/05 00:49:42;;;;;;;2.28;2.10;;;11.40;99.90;;;;;;6286029;28;20295;-69
2022/09/05 00:52:56;;;;;;;1.95;1.80;;;11.30;99.90;;;;;;6285626;28;20458;-69
2022/09/05 00:56:48;;;;;;;3.03;2.00;;;11.30;99.90;;;;;;6286225;28;20460;-68
2022/09/05 01:00:16;;;;;;;1.67;1.58;;;11.40;99.90;;;;;;6293115;28;20313;-68
2022/09/05 01:03:48;;;;;;;3.15;1.92;;;11.40;99.90;;;;;;6306823;28;20298;-68
2022/09/05 01:07:12;;;;;;;1.73;1.70;;;11.40;99.90;;;;;;6310278;28;20573;-69
2022/09/05 01:10:25;;;;;;;1.92;1.92;;;11.30;99.90;;;;;;6318113;28;20263;-68
2022/09/05 01:13:42;;;;;;;3.85;2.15;;;11.30;99.90;;;;;;6335060;28;20314;-68
2022/09/05 01:17:08;;;;;;;1.80;1.80;;;11.30;99.90;;;;;;6335791;28;20271;-68
2022/09/05 01:20:30;;;;;;;2.00;1.90;;;11.20;99.90;;;;;;6334238;28;20277;-68
2022/09/05 01:23:50;;;;;;;3.72;2.03;;;11.20;99.90;;;;;;6334706;28;20593;-67
2022/09/05 01:27:53;;;;;;;3.15;1.92;;;11.20;99.90;;;;;;6335138;28;20279;-67
2022/09/05 01:31:26;;;;;;;2.03;1.85;;;11.20;99.90;;;;;;6275696;28;20458;-68
2022/09/05 01:34:42;;;;;;;3.53;2.20;;;11.20;99.90;;;;;;6340592;28;20294;-68
2022/09/05 01:37:49;;;;;;;5.60;1.75;;;11.10;99.90;;;;;;6339952;28;20452;-68
2022/09/05 01:41:05;;;;;;;1.88;1.77;;;11.10;99.90;;;;;;6341020;28;20269;-68
2022/09/05 01:44:50;;;;;;;2.00;1.88;;;11.20;99.90;;;;;;6340415;28;20605;-68
2022/09/05 01:48:04;;;;;;;2.00;1.90;;;11.20;99.90;;;;;;6340112;28;20297;-67
2022/09/05 01:51:19;;;;;;;1.60;1.60;;;11.10;99.90;;;;;;6340541;28;20270;-67
2022/09/05 01:54:40;;;;;;;1.80;1.75;;;11.20;99.90;;;;;;6339789;28;20298;-68
2022/09/05 01:57:52;;;;;;;1.40;1.40;;;11.20;99.90;;;;;;6339022;28;20369;-67
2022/09/05 02:01:05;;;;;;;1.83;1.70;;;11.20;99.90;;;;;;6339518;28;20294;-68
2022/09/05 02:05:08;;;;;;;1.40;1.40;;;11.20;99.90;;;;;;6338806;28;20293;-68
2022/09/05 02:08:43;;;;;;;1.25;1.25;;;11.20;99.90;;;;;;6339636;28;20297;-68
2022/09/05 02:11:54;;;;;;;1.60;1.50;;;11.20;99.90;;;;;;6336757;28;20261;-68
2022/09/05 02:15:04;;;;;;;1.80;1.70;;;11.20;99.90;;;;;;6321697;28;20274;-68
2022/09/05 02:18:20;;;;;;;1.50;1.50;;;11.20;99.90;;;;;;6339352;28;20302;-68
2022/09/05 02:21:39;;;;;;;1.20;1.20;;;11.10;99.90;;;;;;6339289;28;20467;-68
2022/09/05 02:25:07;;;;;;;1.30;1.30;;;11.00;99.90;;;;;;6338881;28;20274;-68
2022/09/05 02:28:42;;;;;;;1.90;1.40;;;11.00;99.90;;;;;;6338870;28;20249;-68
2022/09/05 02:31:49;;;;;;;3.15;1.30;;;11.00;99.90;;;;;;6339177;28;20274;-68
2022/09/05 02:35:00;;;;;;;1.50;1.50;;;11.00;99.90;;;;;;6338479;28;20274;-68
2022/09/05 02:38:10;;;;;;;1.30;1.30;;;11.00;99.90;;;;;;6338178;28;20298;-68
2022/09/05 02:41:42;;;;;;;1.60;1.60;;;11.00;99.90;;;;;;6337692;28;20270;-67
2022/09/05 02:45:20;;;;;;;1.75;1.67;;;11.00;99.90;;;;;;6337864;28;20286;-68
2022/09/05 02:48:47;;;;;;;1.70;1.60;;;11.00;99.90;;;;;;6337856;28;20544;-67
2022/09/05 02:52:00;;;;;;;2.00;1.77;;;11.00;99.90;;;;;;6338262;28;20262;-67
2022/09/05 02:55:34;;;;;;;5.22;1.77;;;11.10;99.90;;;;;;6339026;28;20266;-67
2022/09/05 02:59:08;;;;;;;6.13;1.70;;;11.10;99.90;;;;;;6338161;28;20298;-67
2022/09/05 03:02:23;;;;;;;2.10;1.90;;;11.10;99.90;;;;;;6338079;28;20274;-67
2022/09/05 03:05:35;;;;;;;2.13;1.73;;;11.00;99.90;;;;;;6337165;28;20285;-67
2022/09/05 03:09:08;;;;;;;1.77;1.67;;;11.00;99.90;;;;;;6320064;28;20289;-67
2022/09/05 03:13:22;;;;;;;1.67;1.58;;;11.00;99.90;;;;;;6338046;28;20266;-67
2022/09/05 03:17:18;;;;;;;1.75;1.75;;;11.00;99.90;;;;;;6324784;28;20274;-67
2022/09/05 03:21:03;;;;;;;1.73;1.55;;;11.00;99.90;;;;;;6297328;28;20290;-67
2022/09/05 03:25:22;;;;;;;1.60;1.60;;;11.00;99.90;;;;;;6331202;28;20294;-67
2022/09/05 03:29:26;;;;;;;1.40;1.40;;;11.00;99.90;;;;;;6286710;28;20601;-68
2022/09/05 03:33:14;;;;;;;1.42;1.33;;;10.90;99.90;;;;;;6337577;28;20270;-68
2022/09/05 03:37:20;;;;;;;1.30;1.30;;;10.90;99.90;;;;;;6324552;28;20278;-69
2022/09/05 03:40:56;;;;;;;1.42;1.42;;;11.00;99.90;;;;;;6284228;28;20303;-68
2022/09/05 03:44:27;;;;;;;1.63;1.30;;;10.90;99.90;;;;;;6312158;28;20462;-68
2022/09/05 03:47:56;;;;;;;1.48;1.48;;;10.90;99.90;;;;;;6312509;28;20449;-67
2022/09/05 03:51:31;;;;;;;1.45;1.30;;;10.90;99.90;;;;;;6310660;28;20283;-67
2022/09/05 03:55:33;;;;;;;3.08;1.30;;;10.90;99.90;;;;;;6310692;28;20298;-67
2022/09/05 03:59:42;;;;;;;2.42;1.70;;;10.80;99.90;;;;;;6311483;28;20290;-67
2022/09/05 04:03:04;;;;;;;3.53;1.85;;;10.80;99.90;;;;;;6324064;28;20274;-67
2022/09/05 04:06:34;;;;;;;1.77;1.60;;;10.70;99.90;;;;;;6311405;28;20426;-68
2022/09/05 04:10:03;;;;;;;3.63;1.70;;;10.70;99.90;;;;;;6309976;28;20298;-67
2022/09/05 04:13:21;;;;;;;4.47;2.47;;;10.70;99.90;;;;;;6333319;28;20262;-68
2022/09/05 04:16:31;;;;;;;3.67;1.58;;;10.80;99.90;;;;;;6337181;28;20273;-68
2022/09/05 04:19:43;;;;;;;1.90;1.80;;;10.80;99.90;;;;;;6335933;28;20294;-67
2022/09/05 04:23:10;;;;;;;2.50;1.67;;;10.70;99.90;;;;;;6336743;28;20273;-68
2022/09/05 04:26:44;;;;;;;6.60;1.85;;;10.70;99.90;;;;;;6336162;28;20273;-68
2022/09/05 04:30:02;;;;;;;1.50;1.50;;;10.70;99.90;;;;;;6336270;28;20302;-68
2022/09/05 04:33:33;;;;;;;2.22;1.38;;;10.60;99.90;;;;;;6336092;28;20577;-68
2022/09/05 04:36:42;;;;;;;1.92;1.50;;;10.50;99.90;;;;;;6336752;28;20269;-67
2022/09/05 04:39:48;;;;;;;2.75;1.70;;;10.60;99.90;;;;;;6336314;28;20301;-67
2022/09/05 04:42:53;;;;;;;1.90;1.67;;;10.70;99.90;;;;;;6336659;28;20265;-68
2022/09/05 04:46:09;;;;;;;4.88;1.60;;;10.60;99.90;;;;;;6336004;28;20297;-68
2022/09/05 04:49:22;;;;;;;6.45;1.48;;;10.70;99.90;;;;;;6335795;28;20313;-68
2022/09/05 04:52:57;;;;;;;13.10;2.13;;;10.70;99.90;;;;;;6335987;28;20270;-68
2022/09/05 04:56:09;;;;;;;15.60;2.42;;;10.70;99.90;;;;;;6334403;28;20294;-68
2022/09/05 04:59:18;;;;;;;5.35;2.10;;;10.70;99.90;;;;;;6332741;28;20298;-68
2022/09/05 05:02:46;;;;;;;3.15;1.52;;;10.70;99.90;;;;;;6310637;28;20275;-68
2022/09/05 05:06:23;;;;;;;1.40;1.40;;;10.70;99.90;;;;;;6309560;28;20405;-68
2022/09/05 05:09:52;;;;;;;1.45;1.45;;;10.70;99.90;;;;;;6310295;28;20307;-68
2022/09/05 05:13:24;;;;;;;1.45;1.45;;;10.70;99.90;;;;;;6309659;28;20262;-68
2022/09/05 05:16:54;;;;;;;1.40;1.30;;;10.80;99.90;;;;;;6310130;28;20270;-68
2022/09/05 05:20:24;;;;;;;1.27;1.27;;;10.90;99.90;;;;;;6308894;28;20298;-68
2022/09/05 05:23:52;;;;;;;1.40;1.40;;;10.90;99.90;;;;;;6310070;28;20298;-68
2022/09/05 05:27:08;;;;;;;1.20;1.20;;;10.90;99.90;;;;;;6309380;28;20546;-68
2022/09/05 05:30:25;;;;;;;1.30;1.30;;;10.90;99.90;;;;;;6310234;28;20299;-68
2022/09/05 05:33:33;;;;;;;1.23;1.23;;;11.00;99.90;;;;;;6310031;28;20295;-68
2022/09/05 05:36:46;;;;;;;1.13;1.13;;;11.10;99.90;;;;;;6309769;28;20271;-68
2022/09/05 05:40:05;;;;;;;1.42;1.30;;;11.10;99.90;;;;;;6309771;28;20468;-68
2022/09/05 05:43:15;;;;;;;1.10;1.10;;;11.10;99.90;;;;;;6309672;28;20279;-68
2022/09/05 05:46:33;;;;;;;1.27;1.27;;;11.20;99.90;;;;;;6309925;28;20267;-68
2022/09/05 05:49:52;;;;;;;1.25;1.25;;;11.20;99.90;;;;;;6309262;28;20338;-68
2022/09/05 05:53:22;;;;;;;1.42;1.42;;;11.20;99.90;;;;;;6310416;28;20271;-69
2022/09/05 05:57:20;;;;;;;1.10;1.10;;;11.20;99.90;;;;;;6308551;28;20274;-69
2022/09/05 06:00:44;;;;;;;1.30;1.30;;;11.30;99.90;;;;;;6316103;28;20299;-68
2022/09/05 06:05:02;;;;;;;1.20;1.20;;;11.40;99.90;;;;;;6334504;28;20534;-68
2022/09/05 06:08:45;;;;;;;1.55;1.10;;;11.40;99.90;;;;;;6299633;28;20274;-68
2022/09/05 06:12:46;;;;;;;1.10;1.10;;;11.50;99.90;;;;;;6335105;28;20266;-68
2022/09/05 06:16:58;;;;;;;1.10;1.10;;;11.60;99.90;;;;;;6336971;28;20273;-68
2022/09/05 06:20:36;;;;;;;1.30;1.30;;;11.60;99.90;;;;;;6339039;28;20294;-68
2022/09/05 06:24:41;;;;;;;1.00;1.00;;;11.70;99.90;;;;;;6338738;28;20301;-67
2022/09/05 06:28:09;;;;;;;1.50;1.50;;;11.70;99.90;;;;;;6337453;28;20270;-68
2022/09/05 06:31:42;;;;;;;2.17;1.15;;;11.80;99.90;;;;;;6338132;28;20293;-68
2022/09/05 06:35:19;;;;;;;1.42;1.10;;;11.90;99.90;;;;;;6338663;28;20314;-68
2022/09/05 06:38:50;;;;;;;1.35;1.35;;;11.90;99.90;;;;;;6337891;28;20286;-68
2022/09/05 06:42:15;;;;;;;1.10;1.10;;;12.00;99.90;;;;;;6338454;28;20294;-68
2022/09/05 06:46:30;;;;;;;1.65;1.10;;;12.20;99.90;;;;;;6338269;28;20297;-67
2022/09/05 06:50:10;;;;;;;1.27;1.10;;;12.40;99.90;;;;;;6332299;28;20347;-69
2022/09/05 06:53:55;;;;;;;1.20;1.20;;;12.70;99.90;;;;;;6338130;28;20298;-69
2022/09/05 06:57:20;;;;;;;1.00;1.00;;;12.90;99.90;;;;;;6338799;28;20274;-68
2022/09/05 07:00:29;;;;;;;1.10;1.00;;;13.10;99.90;;;;;;6325648;28;20306;-67
2022/09/05 07:03:55;;;;;;;1.20;1.20;;;13.20;99.90;;;;;;6313045;28;20298;-67
2022/09/05 07:07:12;;;;;;;1.00;1.00;;;13.30;99.90;;;;;;6313340;28;20271;-68
2022/09/05 07:10:27;;;;;;;1.75;1.25;;;13.30;99.90;;;;;;6313300;28;20298;-68
2022/09/05 07:13:56;;;;;;;1.27;1.27;;;13.30;99.90;;;;;;6287148;28;20295;-68
2022/09/05 07:17:09;;;;;;;1.23;1.00;;;13.40;99.90;;;;;;6288357;28;20279;-68
2022/09/05 07:20:22;;;;;;;1.10;1.10;;;13.40;99.90;;;;;;6287794;28;20432;-68
2022/09/05 07:23:46;;;;;;;1.17;1.17;;;13.30;99.90;;;;;;6286935;28;20300;-68
2022/09/05 07:27:34;;;;;;;0.88;0.88;;;13.40;99.90;;;;;;6287590;28;20268;-68
2022/09/05 07:31:06;;;;;;;1.17;1.17;;;13.30;99.90;;;;;;6288233;28;20295;-68
2022/09/05 07:34:21;;;;;;;0.98;0.98;;;13.30;99.90;;;;;;6287193;28;20304;-68
2022/09/05 07:37:35;;;;;;;1.00;1.00;;;13.30;99.90;;;;;;6287929;28;20267;-68
2022/09/05 07:40:47;;;;;;;0.90;0.90;;;13.30;99.90;;;;;;6287128;28;20573;-68
2022/09/05 07:43:55;;;;;;;1.02;1.02;;;13.40;99.90;;;;;;6287001;28;20319;-68
2022/09/05 07:47:05;;;;;;;1.15;1.15;;;13.40;99.90;;;;;;6287251;28;20336;-68
2022/09/05 07:50:13;;;;;;;0.90;0.90;;;13.40;99.90;;;;;;6287083;28;20296;-69
2022/09/05 07:53:42;;;;;;;1.08;1.08;;;13.40;99.90;;;;;;6287003;28;20411;-69
2022/09/05 07:57:10;;;;;;;0.90;0.90;;;13.50;99.90;;;;;;6287542;28;20275;-69
2022/09/05 08:00:36;;;;;;;1.60;1.00;;;13.50;99.90;;;;;;6299910;28;20310;-69
2022/09/05 08:03:43;;;;;;;1.15;1.00;;;13.50;99.90;;;;;;6311746;28;20294;-68
2022/09/05 08:06:51;;;;;;;1.00;1.00;;;13.50;99.90;;;;;;6312455;28;20266;-68
2022/09/05 08:10:22;;;;;;;1.00;1.00;;;13.50;99.90;;;;;;6311561;28;20294;-69
2022/09/05 08:13:54;;;;;;;1.95;1.10;;;13.50;99.90;;;;;;6311243;28;20573;-68
2022/09/05 08:17:23;;;;;;;0.80;0.80;;;13.50;99.90;;;;;;6311694;28;20270;-68
2022/09/05 08:20:41;;;;;;;1.00;1.00;;;13.60;99.90;;;;;;6311583;28;20586;-68
2022/09/05 08:23:56;;;;;;;0.80;0.80;;;13.60;99.90;;;;;;6310538;28;20577;-68
2022/09/05 08:27:09;;;;;;;0.85;0.85;;;13.70;99.90;;;;;;6311454;28;20567;-69
2022/09/05 08:30:21;;;;;;;1.38;1.20;;;13.70;99.90;;;;;;6311175;28;20601;-68
2022/09/05 08:33:33;;;;;;;1.83;1.23;;;13.70;99.90;;;;;;6311588;28;20298;-68
2022/09/05 08:36:42;;;;;;;1.38;1.38;;;13.70;99.90;;;;;;6311160;28;20270;-69
2022/09/05 08:39:49;;;;;;;1.50;1.50;;;13.70;99.90;;;;;;6310300;28;20290;-69
2022/09/05 08:43:30;;;;;;;1.20;1.20;;;13.70;99.90;;;;;;6310418;28;20290;-69
2022/09/05 08:47:02;;;;;;;1.00;1.00;;;13.80;99.90;;;;;;6311102;28;20266;-69
2022/09/05 08:50:35;;;;;;;1.05;1.05;;;13.80;99.90;;;;;;6310970;28;20298;-69
2022/09/05 08:54:02;;;;;;;0.70;0.70;;;13.70;99.90;;;;;;6310996;28;20290;-69
2022/09/05 08:57:17;;;;;;;0.80;0.80;;;13.80;99.90;;;;;;6311203;28;20274;-68
2022/09/05 09:00:25;;;;;;;1.10;1.10;;;13.80;99.90;;;;;;6309053;28;20302;-68
2022/09/05 09:03:52;;;;;;;1.02;1.00;;;13.80;99.50;;;;;;6310563;28;20479;-68
2022/09/05 09:07:11;;;;;;;1.65;0.88;;;13.90;99.70;;;;;;6311306;28;20266;-69
2022/09/05 09:10:49;;;;;;;1.00;1.00;;;13.90;99.80;;;;;;6311020;28;20294;-68
2022/09/05 09:14:14;;;;;;;1.00;1.00;;;13.90;98.90;;;;;;6309908;28;20298;-69
2022/09/05 09:17:42;;;;;;;0.93;0.93;;;13.90;98.20;;;;;;6311385;28;20275;-68
2022/09/05 09:20:52;;;;;;;0.85;0.85;;;14.00;98.00;;;;;;6310518;28;20294;-68
2022/09/05 09:24:09;;;;;;;0.98;0.98;;;14.00;97.50;;;;;;6308700;28;20298;-68
2022/09/05 09:27:24;;;;;;;0.80;0.80;;;14.00;97.60;;;;;;6310650;28;20574;-69
2022/09/05 09:30:58;;;;;;;0.60;0.60;;;14.10;98.00;;;;;;6310568;28;20299;-69
2022/09/05 09:34:36;;;;;;;1.48;1.10;;;14.10;97.90;;;;;;6310253;28;20588;-69
2022/09/05 09:38:26;;;;;;;0.98;0.80;;;14.10;98.00;;;;;;6301393;28;20578;-68
2022/09/05 09:41:48;;;;;;;0.80;0.80;;;14.20;98.30;;;;;;6309609;28;20578;-69
2022/09/05 09:45:25;;;;;;;0.73;0.73;;;14.20;98.40;;;;;;6310078;28;20298;-69
2022/09/05 09:49:06;;;;;;;1.92;0.90;;;14.40;98.20;;;;;;6310088;28;20295;-69
2022/09/05 09:53:15;;;;;;;1.10;1.10;;;14.40;97.50;;;;;;6316028;28;20455;-69
2022/09/05 09:56:55;;;;;;;0.80;0.80;;;14.50;97.70;;;;;;6305639;28;20275;-69
2022/09/05 10:00:10;;;;;;;1.10;1.10;;;14.50;97.60;;;;;;6314460;28;20314;-68
2022/09/05 10:03:48;;;;;;;0.80;0.80;;;14.60;97.10;;;;;;6314119;28;20315;-69
2022/09/05 10:07:41;;;;;;;0.90;0.90;;;14.80;97.40;;;;;;6314427;28;20545;-68
2022/09/05 10:11:17;;;;;;;1.30;0.80;;;14.80;96.50;;;;;;6317494;28;20272;-68
2022/09/05 10:14:59;;;;;;;0.70;0.70;;;14.90;96.40;;;;;;6339184;28;20301;-69
2022/09/05 10:18:44;;;;;;;0.93;0.93;;;14.90;95.80;;;;;;6338971;28;20293;-69
2022/09/05 10:22:04;;;;;;;2.30;1.00;;;14.90;95.30;;;;;;6339336;28;20265;-69
2022/09/05 10:25:57;;;;;;;0.90;0.90;;;15.00;95.00;;;;;;6338913;28;20565;-68
2022/09/05 10:29:10;;;;;;;0.70;0.70;;;15.10;94.80;;;;;;6338675;28;20301;-68
2022/09/05 10:32:42;;;;;;;0.90;0.90;;;15.10;94.90;;;;;;6339065;28;20457;-69
2022/09/05 10:36:23;;;;;;;0.70;0.70;;;15.20;94.90;;;;;;6338376;28;20283;-68
2022/09/05 10:39:32;;;;;;;1.65;0.88;;;15.20;94.00;;;;;;6338226;28;20546;-68
2022/09/05 10:42:43;;;;;;;0.70;0.70;;;15.30;94.00;;;;;;6339137;28;20270;-68
2022/09/05 10:46:17;;;;;;;0.90;0.85;;;15.40;93.90;;;;;;6338175;28;20289;-68
2022/09/05 10:49:44;;;;;;;0.98;0.73;;;15.50;94.00;;;;;;6338005;28;20301;-68
2022/09/05 10:53:24;;;;;;;1.48;0.80;;;15.50;94.60;;;;;;6338459;28;20273;-67
2022/09/05 10:56:35;;;;;;;0.70;0.70;;;15.40;94.10;;;;;;6336550;28;20438;-68
2022/09/05 11:00:04;;;;;;;2.50;0.88;;;15.30;93.60;;;;;;6337541;28;20306;-68
2022/09/05 11:03:43;;;;;;;0.90;0.90;;;15.30;93.20;;;;;;6335901;28;20382;-67
2022/09/05 11:06:57;;;;;;;0.85;0.85;;;15.30;92.70;;;;;;6338426;28;20289;-68
2022/09/05 11:10:07;;;;;;;0.90;0.90;;;15.40;92.50;;;;;;6338146;28;20293;-68
2022/09/05 11:13:24;;;;;;;0.70;0.70;;;15.50;92.30;;;;;;6328052;28;20268;-68
2022/09/05 11:16:39;;;;;;;0.70;0.70;;;15.50;91.10;;;;;;6313311;28;20276;-68
2022/09/05 11:19:47;;;;;;;1.35;0.60;;;15.50;90.80;;;;;;6312766;28;20294;-68
2022/09/05 11:22:59;;;;;;;0.80;0.80;;;15.50;90.80;;;;;;6313028;28;20480;-68
2022/09/05 11:26:07;;;;;;;0.80;0.80;;;15.50;90.80;;;;;;6311913;28;20460;-69
2022/09/05 11:29:16;;;;;;;1.13;0.70;;;15.50;90.50;;;;;;6312215;28;20306;-68
2022/09/05 11:32:53;;;;;;;1.60;0.95;;;15.70;90.50;;;;;;6312596;28;20406;-67
2022/09/05 11:36:21;;;;;;;1.05;0.80;;;15.80;90.40;;;;;;6311890;28;20394;-67
2022/09/05 11:40:25;;;;;;;2.05;0.80;;;16.00;90.70;;;;;;6312123;28;20589;-68
2022/09/05 11:44:12;;;;;;;0.80;0.80;;;16.10;89.80;;;;;;6312028;28;20318;-68
2022/09/05 11:47:56;;;;;;;0.80;0.80;;;16.10;88.50;;;;;;6312310;28;20287;-68
2022/09/05 11:52:14;;;;;;;1.23;0.70;;;16.00;88.10;;;;;;6312286;28;20298;-69
2022/09/05 11:56:03;;;;;;;0.73;0.73;;;15.80;87.20;;;;;;6214133;28;20298;-69
2022/09/05 11:59:49;;;;;;;1.17;0.77;;;15.80;88.30;;;;;;6312089;28;20295;-69
2022/09/05 12:03:51;;;;;;;1.00;0.90;;;15.80;88.40;;;;;;6311889;28;20582;-69
2022/09/05 12:07:19;;;;;;;0.88;0.88;;;16.00;87.30;;;;;;6298737;28;20314;-68
2022/09/05 12:10:48;;;;;;;0.85;0.85;;;16.00;85.50;;;;;;6311728;28;20594;-67
2022/09/05 12:14:00;;;;;;;0.90;0.90;;;16.20;85.90;;;;;;6311435;28;20621;-68
2022/09/05 12:17:33;;;;;;;0.90;0.90;;;16.30;87.00;;;;;;6312026;28;20255;-68
2022/09/05 12:20:56;;;;;;;0.60;0.60;;;16.30;84.90;;;;;;6311346;28;20294;-68
2022/09/05 12:24:09;;;;;;;0.70;0.70;;;16.20;85.40;;;;;;6311109;28;20298;-68
2022/09/05 12:27:36;;;;;;;0.80;0.80;;;16.10;86.50;;;;;;6311439;28;20390;-68
2022/09/05 12:30:52;;;;;;;0.80;0.80;;;16.10;87.20;;;;;;6310831;28;20298;-68
2022/09/05 12:34:49;;;;;;;0.70;0.70;;;16.00;88.10;;;;;;6311032;28;20294;-68
2022/09/05 12:38:31;;;;;;;0.68;0.68;;;16.00;83.80;;;;;;6310848;28;20290;-68
2022/09/05 12:42:02;;;;;;;4.38;0.80;;;15.90;84.40;;;;;;6311484;28;20270;-68
2022/09/05 12:45:19;;;;;;;0.95;0.70;;;15.90;85.80;;;;;;6310427;28;20294;-68
2022/09/05 12:48:46;;;;;;;0.70;0.70;;;15.90;88.10;;;;;;6310913;28;20310;-68
2022/09/05 12:52:01;;;;;;;0.70;0.70;;;15.90;90.20;;;;;;6311266;28;20270;-68
2022/09/05 12:55:11;;;;;;;0.80;0.80;;;15.90;84.10;;;;;;6310230;28;20299;-68
2022/09/05 12:58:22;;;;;;;0.90;0.90;;;16.10;86.40;;;;;;6310251;28;20270;-68
2022/09/05 13:02:02;;;;;;;1.20;1.20;;;16.20;84.70;;;;;;6311197;28;20298;-68
2022/09/05 13:05:55;;;;;;;0.70;0.70;;;16.40;84.70;;;;;;6310193;28;20290;-68
2022/09/05 13:09:09;;;;;;;0.80;0.80;;;16.40;83.00;;;;;;6310617;28;20302;-68
2022/09/05 13:12:19;;;;;;;0.60;0.60;;;16.50;80.90;;;;;;6324207;28;20261;-69
2022/09/05 13:15:49;;;;;;;3.50;0.95;;;16.50;81.90;;;;;;6335599;28;20297;-68
2022/09/05 13:19:06;;;;;;;0.70;0.70;;;16.50;81.40;;;;;;6335701;28;20484;-68
2022/09/05 13:22:15;;;;;;;0.80;0.80;;;16.50;83.70;;;;;;6336208;28;20270;-68
2022/09/05 13:25:25;;;;;;;0.70;0.70;;;16.40;84.00;;;;;;6334812;28;20293;-68
2022/09/05 13:28:45;;;;;;;0.80;0.80;;;16.30;82.70;;;;;;6334865;28;20329;-68
2022/09/05 13:32:09;;;;;;;1.30;0.75;;;16.30;83.20;;;;;;6335937;28;20270;-68
2022/09/05 13:35:36;;;;;;;1.80;0.88;;;16.40;80.20;;;;;;6335269;28;20294;-68
2022/09/05 13:39:04;;;;;;;1.85;0.90;;;16.40;79.90;;;;;;6335351;28;20298;-68
2022/09/05 13:42:17;;;;;;;0.80;0.80;;;16.40;84.30;;;;;;6335635;28;20278;-68
2022/09/05 13:45:23;;;;;;;0.60;0.60;;;16.30;80.70;;;;;;6334997;28;20297;-68
2022/09/05 13:48:41;;;;;;;0.88;0.88;;;16.30;83.30;;;;;;6334819;28;20608;-68
2022/09/05 13:52:27;;;;;;;0.73;0.73;;;16.30;81.60;;;;;;6335709;28;20269;-68
2022/09/05 13:55:40;;;;;;;1.05;0.88;;;16.30;81.20;;;;;;6334786;28;20313;-68
2022/09/05 13:58:52;;;;;;;0.70;0.70;;;16.20;86.30;;;;;;6334800;28;20326;-68
2022/09/05 14:02:26;;;;;;;2.22;0.90;;;16.10;83.70;;;;;;6334970;28;20294;-68
2022/09/05 14:05:36;;;;;;;0.90;0.90;;;16.10;80.20;;;;;;6334983;28;20468;-68
2022/09/05 14:09:03;;;;;;;0.82;0.82;;;16.10;80.30;;;;;;6334830;28;20293;-68
2022/09/05 14:12:36;;;;;;;0.90;0.90;;;16.10;82.40;;;;;;6333686;28;20266;-68
2022/09/05 14:15:54;;;;;;;0.80;0.80;;;16.00;81.10;;;;;;6334488;28;20293;-68
2022/09/05 14:22:50;;;;;;;0.73;0.73;;;16.10;86.40;;;;;;6334727;28;20266;-68
2022/09/05 14:25:58;;;;;;;0.77;0.77;;;16.10;84.70;;;;;;6332233;28;20598;-67
2022/09/05 14:29:13;;;;;;;0.77;0.77;;;16.10;83.80;;;;;;6334258;28;20297;-69
2022/09/05 14:33:19;;;;;;;0.90;0.80;;;16.00;85.90;;;;;;6334879;28;20270;-68
2022/09/05 14:36:57;;;;;;;0.68;0.68;;;16.00;83.30;;;;;;6318491;28;20561;-68
2022/09/05 14:41:35;;;;;;;0.90;0.90;;;16.00;83.40;;;;;;6338774;28;20294;-68
2022/09/05 14:45:15;;;;;;;2.78;0.90;;;16.00;82.10;;;;;;6338573;28;20479;-68
2022/09/05 14:48:43;;;;;;;0.88;0.70;;;16.10;82.60;;;;;;6338640;28;20286;-68
2022/09/05 14:51:56;;;;;;;0.90;0.90;;;16.10;88.90;;;;;;6339115;28;20274;-68
2022/09/05 14:55:13;;;;;;;0.80;0.80;;;16.10;91.60;;;;;;6338276;28;20301;-68
2022/09/05 14:58:29;;;;;;;1.20;1.20;;;16.20;89.60;;;;;;6338386;28;20286;-69
2022/09/05 15:02:06;;;;;;;1.05;1.05;;;16.20;92.60;;;;;;6338368;28;20592;-68
2022/09/05 15:05:40;;;;;;;1.05;1.05;;;16.20;93.20;;;;;;6338536;28;20290;-67
2022/09/05 15:08:48;;;;;;;0.80;0.80;;;16.30;92.60;;;;;;6338270;28;20297;-68
2022/09/05 15:12:18;;;;;;;0.93;0.93;;;16.30;89.20;;;;;;6338688;28;20261;-68
2022/09/05 15:15:46;;;;;;;0.90;0.90;;;16.40;87.20;;;;;;6336685;28;20297;-68
2022/09/05 15:19:10;;;;;;;1.13;1.13;;;16.40;85.70;;;;;;6338033;28;20298;-67
2022/09/05 15:22:24;;;;;;;0.98;0.98;;;16.50;87.60;;;;;;6338362;28;20274;-70
2022/09/05 15:25:44;;;;;;;1.10;1.10;;;16.50;84.30;;;;;;6338088;28;20322;-69
2022/09/05 15:28:51;;;;;;;1.60;0.88;;;16.60;84.20;;;;;;6337851;28;20310;-69
2022/09/05 15:32:21;;;;;;;0.80;0.80;;;16.50;83.30;;;;;;6337873;28;20269;-68
2022/09/05 15:35:37;;;;;;;1.65;0.90;;;16.40;83.90;;;;;;6337077;28;20294;-68
2022/09/05 15:38:44;;;;;;;0.80;0.80;;;16.30;86.30;;;;;;6337575;28;20294;-68
2022/09/05 15:42:14;;;;;;;0.90;0.90;;;16.30;86.30;;;;;;6337240;28;20269;-69
2022/09/05 15:45:25;;;;;;;0.90;0.90;;;16.30;85.40;;;;;;6337413;28;20289;-68
2022/09/05 15:48:31;;;;;;;0.80;0.80;;;16.30;85.10;;;;;;6334889;28;20297;-67
2022/09/05 15:51:46;;;;;;;0.80;0.80;;;16.20;90.10;;;;;;6337474;28;20334;-69
2022/09/05 15:54:53;;;;;;;0.90;0.90;;;16.00;87.70;;;;;;6337290;28;20344;-68
2022/09/05 15:58:05;;;;;;;0.75;0.75;;;16.00;87.40;;;;;;6337612;28;20273;-68
2022/09/05 16:01:14;;;;;;;1.70;1.70;;;15.90;90.20;;;;;;6319693;28;20294;-68
2022/09/05 16:04:40;;;;;;;1.00;1.00;;;15.90;88.60;;;;;;6311885;28;20605;-68
2022/09/05 16:08:10;;;;;;;2.35;1.25;;;15.80;90.70;;;;;;6311683;28;20293;-68
2022/09/05 16:11:39;;;;;;;1.90;1.10;;;15.80;90.70;;;;;;6311430;28;20511;-68
2022/09/05 16:15:08;;;;;;;0.90;0.90;;;15.80;91.10;;;;;;6310952;28;20486;-68
2022/09/05 16:18:42;;;;;;;0.90;0.90;;;15.70;91.70;;;;;;6310781;28;20294;-68
2022/09/05 16:22:13;;;;;;;2.17;1.10;;;15.80;92.10;;;;;;6311506;28;20267;-68
2022/09/05 16:25:45;;;;;;;1.30;0.93;;;15.70;92.40;;;;;;6311244;28;20294;-68
2022/09/05 16:28:55;;;;;;;1.83;1.00;;;15.60;92.90;;;;;;6311030;28;20302;-68
2022/09/05 16:32:17;;;;;;;0.70;0.70;;;15.60;93.10;;;;;;6311279;28;20274;-68
2022/09/05 16:35:23;;;;;;;1.10;1.10;;;15.60;94.00;;;;;;6309551;28;20398;-68
2022/09/05 16:38:34;;;;;;;5.38;0.80;;;15.50;94.40;;;;;;6310494;28;20298;-68
2022/09/05 16:41:57;;;;;;;0.80;0.80;;;15.40;94.90;;;;;;6311588;28;20270;-68
2022/09/05 16:45:09;;;;;;;1.63;1.00;;;15.40;95.00;;;;;;6310798;28;20293;-70
2022/09/05 16:48:41;;;;;;;1.00;1.00;;;15.30;95.10;;;;;;6310676;28;20267;-69
2022/09/05 16:51:49;;;;;;;2.55;1.20;;;15.10;95.60;;;;;;6308697;28;20270;-69
2022/09/05 16:55:01;;;;;;;7.43;1.30;;;15.10;96.00;;;;;;6310169;28;20294;-69
2022/09/05 16:58:12;;;;;;;1.13;1.00;;;15.10;96.90;;;;;;6310515;28;20546;-68
2022/09/05 17:01:30;;;;;;;0.93;0.93;;;15.10;96.40;;;;;;6327544;28;20318;-68
2022/09/05 17:04:51;;;;;;;1.17;1.17;;;15.20;95.50;;;;;;6335158;28;20301;-68
2022/09/05 17:08:18;;;;;;;1.20;1.20;;;15.20;96.30;;;;;;6334731;28;20266;-69
2022/09/05 17:11:24;;;;;;;1.02;0.88;;;14.90;97.10;;;;;;6336048;28;20265;-68
2022/09/05 17:14:40;;;;;;;1.02;1.02;;;14.90;97.50;;;;;;6335286;28;20298;-68
2022/09/05 17:17:56;;;;;;;1.20;1.20;;;14.80;97.00;;;;;;6335366;28;20279;-69
2022/09/05 17:21:30;;;;;;;2.70;1.20;;;14.70;96.70;;;;;;6334959;28;20281;-70
2022/09/05 17:25:01;;;;;;;1.75;1.05;;;14.60;97.50;;;;;;6335144;28;20363;-70
2022/09/05 17:29:01;;;;;;;0.98;0.98;;;14.50;97.60;;;;;;6334745;28;20289;-70
2022/09/05 17:32:45;;;;;;;1.00;1.00;;;14.50;98.00;;;;;;6335834;28;20270;-69
2022/09/05 17:36:09;;;;;;;1.08;1.08;;;14.50;98.50;;;;;;6335015;28;20613;-69
2022/09/05 17:39:28;;;;;;;1.20;1.10;;;14.40;98.90;;;;;;6334442;28;20297;-69
2022/09/05 17:42:54;;;;;;;3.92;1.35;;;14.30;98.70;;;;;;6334909;28;20269;-68
2022/09/05 17:46:20;;;;;;;2.67;0.90;;;14.30;98.90;;;;;;6334735;28;20385;-69
2022/09/05 17:49:43;;;;;;;1.60;1.60;;;14.20;98.90;;;;;;6334438;28;20297;-68
2022/09/05 17:53:09;;;;;;;1.13;1.08;;;14.20;99.60;;;;;;6335487;28;20265;-68
2022/09/05 17:56:36;;;;;;;1.00;1.00;;;14.20;99.00;;;;;;6334538;28;20285;-68
2022/09/05 17:59:42;;;;;;;0.93;0.90;;;14.10;99.40;;;;;;6330461;28;20499;-68